Hovedside
METAR-TAF:

METAR-TAF

Lufthavner :

Santo Domingo, Den dominikanske republikk

breddegrad: 18-34-32N, lengdegrad: 069-58-53W, høyde over havet: 15 m

Gjeldene værobservasjon

Denne rapporten ble laget for 30 minutter siden, klokken 20:00 UTC
Vind 7 kt fra Sør-sørøst
Temperatur 33°C
Luftfuktighet 56%
Trykk 1009 hPa
Sikt 10 km eller mer
Få skyer i en høyde av 2000 ft, Bygeskyer.
Få skyer i en høyde av 2200 ft

METAR: MDJB 182000Z 15007KT 9999 FEW020CB FEW022 33/23 Q1009 CB/W

Tid: 16:30 (20:30 UTC)

Varsel

Denne rapporten ble laget for 4 timer og 30 minutter siden, klokken 16:00 UTC
Varsel gyldig fra 18. klokken 18 UTC til 19. klokken 18 UTC
Vind kt fra Nord
Sikt 10 km eller mer
Spredte skyer i en høyde av 2000 ft
Spredte skyer i en høyde av 30000 ft
Blir
fra 18. klokken 16 UTC til 18. klokken 18 UTC
Vind 10 kt fra Sør-sørøst

TAF: MDJB 181600Z 1818/1918 00000KT 9999 SCT020 SCT300 BECMG 1816/1818 16010KT

Værobservasjoner og værvarsel for over 4000 flyplasser (METAR- og TAF-rapporter).

Tilgjengelige stasjoner er representert av de røde og gule prikkene på kartet.

Hold musepekeren over prikken for å se navnet på stasjonen.

Klikk så for å se værobservasjoner og -varsler.

For å forandre kartet kan du klikke på den grønne knappen med svart kryss for å zoome inn, på den grønne knappen med strek for å zoome ut, eller på de grønne pilene for å se tilstøtende kart.


METAR-TAF: